Time;durP1;ratioP1;P1;durP2;ratioP2;P2;SDS_P1;SDS_P2;PMS_P1;PMS_P2;Temp;Humidity;BMP_temperature;BMP_pressure;BME280_temperature;BME280_humidity;BME280_pressure;Samples;Min_cycle;Max_cycle;Signal;HPM_P1;HPM_P2
2021/01/03 00:02:07;;;;;;;2.30;2.17;;;3.10;99.90;;;;;;4848605;29;20204;-96
2021/01/03 00:04:42;;;;;;;3.37;1.67;;;3.10;99.90;;;;;;4838123;29;20694;-96
2021/01/03 00:07:12;;;;;;;3.10;1.80;;;3.10;99.90;;;;;;4846573;29;20243;-96
2021/01/03 00:09:38;;;;;;;2.13;1.47;;;3.00;99.90;;;;;;4832474;29;20270;-96
2021/01/03 00:12:04;;;;;;;2.87;2.43;;;3.10;99.90;;;;;;4852272;29;20300;-96
2021/01/03 00:14:35;;;;;;;3.93;3.43;;;3.10;99.90;;;;;;4828682;29;20196;-96
2021/01/03 00:17:05;;;;;;;2.63;2.47;;;3.10;99.90;;;;;;4846578;29;20224;-96
2021/01/03 00:19:33;;;;;;;3.57;2.17;;;3.10;99.90;;;;;;4845452;29;20267;-96
2021/01/03 00:21:59;;;;;;;3.93;2.23;;;3.20;99.90;;;;;;4861384;29;20263;-96
2021/01/03 00:24:27;;;;;;;2.00;1.73;;;3.20;99.90;;;;;;4827674;29;20224;-96
2021/01/03 00:26:58;;;;;;;3.00;1.43;;;3.20;99.90;;;;;;4844129;29;20236;-96
2021/01/03 00:29:24;;;;;;;2.97;2.77;;;3.20;99.90;;;;;;4837986;29;20271;-96
2021/01/03 00:31:55;;;;;;;2.17;1.93;;;3.10;99.90;;;;;;4844787;29;20678;-96
2021/01/03 00:34:32;;;;;;;4.87;1.97;;;3.10;99.90;;;;;;4841134;29;20223;-96
2021/01/03 00:37:02;;;;;;;4.40;3.37;;;3.00;99.90;;;;;;4846088;29;20247;-96
2021/01/03 00:39:28;;;;;;;4.23;2.67;;;3.00;99.90;;;;;;4818243;29;20260;-96
2021/01/03 00:41:54;;;;;;;30.80;3.70;;;3.00;99.90;;;;;;4853767;29;20240;-96
2021/01/03 00:44:20;;;;;;;5.23;3.30;;;2.90;99.90;;;;;;4856098;29;20192;-96
2021/01/03 00:46:48;;;;;;;4.53;3.23;;;2.90;99.90;;;;;;4839577;29;20227;-95
2021/01/03 00:49:20;;;;;;;43.73;3.10;;;2.90;99.90;;;;;;4844386;29;20745;-96
2021/01/03 00:51:46;;;;;;;3.20;2.93;;;2.90;99.90;;;;;;4844287;29;20320;-96
2021/01/03 00:54:11;;;;;;;2.57;2.40;;;2.90;99.90;;;;;;4863313;29;20725;-96
2021/01/03 00:56:39;;;;;;;4.73;2.63;;;2.90;99.90;;;;;;4824209;29;20196;-95
2021/01/03 00:59:08;;;;;;;3.47;2.60;;;2.80;99.90;;;;;;4848628;29;20299;-96
2021/01/03 01:01:38;;;;;;;5.90;2.47;;;2.80;99.90;;;;;;4845992;29;20228;-95
2021/01/03 01:04:06;;;;;;;7.60;5.93;;;2.70;99.90;;;;;;4837998;29;20224;-96
2021/01/03 01:06:32;;;;;;;4.03;2.10;;;2.50;99.90;;;;;;4866903;29;20227;-96
2021/01/03 01:08:58;;;;;;;3.77;2.83;;;2.20;99.90;;;;;;4848071;29;20216;-95
2021/01/03 01:11:28;;;;;;;4.57;4.17;;;2.10;99.90;;;;;;4844788;29;20196;-96
2021/01/03 01:13:54;;;;;;;2.87;2.20;;;2.10;99.90;;;;;;4851183;29;20184;-96
2021/01/03 01:16:24;;;;;;;5.27;3.67;;;2.10;99.90;;;;;;4846800;29;20454;-96
2021/01/03 01:18:52;;;;;;;3.97;3.03;;;2.10;99.90;;;;;;4845699;29;20267;-96
2021/01/03 01:21:23;;;;;;;2.97;2.77;;;2.20;99.90;;;;;;4838866;29;20225;-95
2021/01/03 01:23:52;;;;;;;4.03;3.63;;;2.30;99.90;;;;;;4837767;29;20243;-96
2021/01/03 01:26:21;;;;;;;4.90;3.13;;;2.20;99.90;;;;;;4851142;29;20188;-96
2021/01/03 01:28:57;;;;;;;1.80;1.70;;;2.00;99.90;;;;;;4863077;29;20695;-96
2021/01/03 01:31:22;;;;;;;8.93;2.90;;;1.90;99.90;;;;;;4830860;29;20223;-96
2021/01/03 01:33:54;;;;;;;3.07;2.87;;;1.90;99.90;;;;;;4844024;29;20240;-94
2021/01/03 01:36:20;;;;;;;7.60;4.43;;;1.90;99.90;;;;;;4844581;29;20224;-96
2021/01/03 01:38:55;;;;;;;4.77;3.10;;;1.80;99.90;;;;;;4842776;29;20227;-95
2021/01/03 01:41:20;;;;;;;4.83;2.23;;;1.80;99.90;;;;;;4843621;29;20230;-94
2021/01/03 01:43:49;;;;;;;4.00;3.23;;;1.80;99.90;;;;;;4843815;29;20228;-95
2021/01/03 01:46:26;;;;;;;5.17;3.30;;;1.80;99.90;;;;;;4841326;29;20220;-96
2021/01/03 01:48:52;;;;;;;3.47;2.43;;;1.80;99.90;;;;;;4832987;29;20353;-95
2021/01/03 01:51:28;;;;;;;24.70;5.17;;;1.80;99.90;;;;;;4858826;29;20228;-95
2021/01/03 01:54:20;;;;;;;4.50;3.27;;;1.80;99.90;;;;;;4827489;29;20690;-95
2021/01/03 01:56:58;;;;;;;4.73;4.27;;;1.80;99.90;;;;;;4833031;29;20225;-96
2021/01/03 02:00:11;;;;;;;3.13;2.80;;;1.80;99.90;;;;;;4842037;29;20200;-95
2021/01/03 02:02:43;;;;;;;2.00;1.77;;;1.90;99.90;;;;;;4845571;29;20257;-96
2021/01/03 02:05:18;;;;;;;3.77;3.57;;;1.80;99.90;;;;;;4844460;29;20639;-96
2021/01/03 02:07:44;;;;;;;4.60;3.10;;;1.90;99.90;;;;;;4846211;29;20247;-96
2021/01/03 02:10:29;;;;;;;3.63;2.93;;;2.10;99.90;;;;;;4835564;29;20318;-96
2021/01/03 02:13:21;;;;;;;10.50;5.30;;;2.20;99.90;;;;;;4839222;29;20228;-96
2021/01/03 02:15:49;;;;;;;4.53;3.50;;;2.20;99.90;;;;;;4844098;29;20239;-96
2021/01/03 02:18:16;;;;;;;8.73;4.23;;;2.20;99.90;;;;;;4858202;29;20296;-96
2021/01/03 02:21:00;;;;;;;5.03;3.90;;;2.30;99.90;;;;;;4860517;29;20189;-96
2021/01/03 02:23:53;;;;;;;11.17;5.20;;;2.30;99.90;;;;;;4832536;29;20239;-95
2021/01/03 02:26:27;;;;;;;3.67;3.37;;;2.30;99.90;;;;;;4845120;29;20555;-96
2021/01/03 02:29:06;;;;;;;2.70;2.50;;;2.40;99.90;;;;;;4842238;29;20319;-96
2021/01/03 02:31:41;;;;;;;4.67;4.07;;;2.50;99.90;;;;;;4833525;29;20224;-96
2021/01/03 02:34:10;;;;;;;2.83;2.10;;;2.60;99.90;;;;;;4849680;29;20243;-96
2021/01/03 02:37:06;;;;;;;3.23;2.30;;;2.60;99.90;;;;;;4845911;29;20783;-96
2021/01/03 02:39:53;;;;;;;23.63;3.77;;;2.60;99.90;;;;;;4849832;29;20259;-96
2021/01/03 02:42:28;;;;;;;3.80;3.20;;;2.70;99.90;;;;;;4849039;29;20304;-96
2021/01/03 02:44:55;;;;;;;3.80;3.13;;;2.70;99.90;;;;;;4836920;29;20232;-96
2021/01/03 02:47:24;;;;;;;5.40;4.40;;;2.70;99.90;;;;;;4845367;29;20200;-96
2021/01/03 02:49:51;;;;;;;7.10;4.97;;;2.70;99.90;;;;;;4851699;29;20216;-96
2021/01/03 02:52:26;;;;;;;3.40;3.20;;;2.80;99.90;;;;;;4845003;29;20232;-96
2021/01/03 02:54:52;;;;;;;6.87;4.40;;;2.80;99.90;;;;;;4859426;29;20315;-96
2021/01/03 02:57:20;;;;;;;6.27;4.80;;;2.80;99.90;;;;;;4837111;29;20698;-96
2021/01/03 02:59:48;;;;;;;5.53;4.53;;;2.90;99.90;;;;;;4837778;29;21867;-96
2021/01/03 03:02:16;;;;;;;4.00;3.70;;;3.00;99.90;;;;;;4862351;29;20220;-96
2021/01/03 03:04:44;;;;;;;11.20;4.60;;;3.00;99.90;;;;;;4861472;29;20227;-95
2021/01/03 03:07:11;;;;;;;7.10;4.10;;;3.00;99.90;;;;;;4850655;29;20235;-96
2021/01/03 03:09:37;;;;;;;7.43;5.93;;;3.00;99.90;;;;;;4845874;29;20251;-96
2021/01/03 03:12:10;;;;;;;10.13;3.93;;;3.00;99.90;;;;;;4846874;29;20741;-96
2021/01/03 03:14:36;;;;;;;4.10;3.77;;;3.10;99.90;;;;;;4831748;29;20336;-96
2021/01/03 03:17:06;;;;;;;5.83;5.30;;;3.10;99.90;;;;;;4854606;29;21211;-96
2021/01/03 03:19:35;;;;;;;6.73;4.33;;;3.10;99.90;;;;;;4843508;29;20232;-96
2021/01/03 03:22:04;;;;;;;6.20;4.63;;;3.00;99.90;;;;;;4837956;29;20224;-95
2021/01/03 03:24:30;;;;;;;5.93;5.43;;;3.00;99.90;;;;;;4860434;29;20239;-96
2021/01/03 03:27:01;;;;;;;6.03;4.33;;;3.00;99.90;;;;;;4838141;29;20802;-96
2021/01/03 03:29:27;;;;;;;4.97;3.70;;;3.00;99.90;;;;;;4843447;29;20828;-96
2021/01/03 03:32:06;;;;;;;8.30;4.23;;;3.10;99.90;;;;;;4862313;29;20287;-95
2021/01/03 03:34:32;;;;;;;7.67;5.97;;;3.00;99.90;;;;;;4816118;29;20237;-95
2021/01/03 03:36:58;;;;;;;7.43;4.30;;;3.00;99.90;;;;;;4842072;29;20230;-95
2021/01/03 03:39:26;;;;;;;6.57;4.83;;;3.00;99.90;;;;;;4846265;29;20266;-95
2021/01/03 03:41:56;;;;;;;9.20;6.43;;;3.00;99.90;;;;;;4841984;29;20308;-96
2021/01/03 03:44:23;;;;;;;6.93;5.50;;;3.10;99.90;;;;;;4847778;29;20188;-95
2021/01/03 03:46:56;;;;;;;4.47;3.53;;;3.10;99.90;;;;;;4834828;29;20252;-96
2021/01/03 03:49:24;;;;;;;6.43;4.20;;;3.10;99.90;;;;;;4850375;29;20752;-96
2021/01/03 03:51:55;;;;;;;5.63;4.70;;;3.10;99.90;;;;;;4834721;29;20228;-96
2021/01/03 03:54:21;;;;;;;9.37;4.90;;;3.00;99.90;;;;;;4828086;29;20252;-95
2021/01/03 03:57:03;;;;;;;10.07;5.43;;;3.10;99.90;;;;;;4834899;29;20690;-96
2021/01/03 03:59:29;;;;;;;4.80;4.43;;;3.10;99.90;;;;;;4844852;29;20207;-96
2021/01/03 04:01:57;;;;;;;8.13;5.40;;;3.10;99.90;;;;;;4844784;29;20642;-96
2021/01/03 04:04:25;;;;;;;6.37;5.03;;;3.10;99.90;;;;;;4844310;29;20236;-95
2021/01/03 04:06:51;;;;;;;10.73;7.23;;;3.20;99.90;;;;;;4844418;29;20331;-95
2021/01/03 04:09:21;;;;;;;9.10;6.37;;;3.20;99.90;;;;;;4858956;29;20224;-96
2021/01/03 04:11:49;;;;;;;13.43;7.63;;;3.20;99.90;;;;;;4835006;29;20240;-96
2021/01/03 04:14:19;;;;;;;10.17;6.33;;;3.30;99.90;;;;;;4844956;29;20199;-96
2021/01/03 04:16:59;;;;;;;19.97;6.53;;;3.30;99.90;;;;;;4841301;29;20224;-96
2021/01/03 04:19:28;;;;;;;16.33;9.43;;;3.30;99.90;;;;;;4858235;29;20227;-96
2021/01/03 04:21:58;;;;;;;17.30;7.90;;;3.30;99.90;;;;;;4842499;29;20255;-96
2021/01/03 04:24:31;;;;;;;9.43;7.83;;;3.30;99.90;;;;;;4851163;29;20638;-96
2021/01/03 04:26:59;;;;;;;35.73;9.73;;;3.30;99.90;;;;;;4835955;29;20270;-96
2021/01/03 04:29:29;;;;;;;8.23;7.10;;;3.30;99.90;;;;;;4844905;29;20201;-96
2021/01/03 04:32:03;;;;;;;11.20;5.53;;;3.40;99.90;;;;;;4863246;29;20216;-96
2021/01/03 04:34:29;;;;;;;13.57;8.27;;;3.40;99.90;;;;;;4838044;29;20224;-96
2021/01/03 04:36:57;;;;;;;7.93;5.73;;;3.40;99.90;;;;;;4836201;29;20304;-96
2021/01/03 04:39:28;;;;;;;13.97;7.83;;;3.50;99.90;;;;;;4851867;29;20317;-96
2021/01/03 04:42:10;;;;;;;12.17;8.23;;;3.40;99.90;;;;;;4844619;29;21038;-96
2021/01/03 04:44:40;;;;;;;23.43;8.03;;;3.50;99.90;;;;;;4845484;29;20184;-96
2021/01/03 04:47:39;;;;;;;13.67;8.20;;;3.50;99.90;;;;;;4844527;29;20227;-96
2021/01/03 04:50:21;;;;;;;11.33;6.67;;;3.50;99.90;;;;;;4836062;29;20228;-96
2021/01/03 04:53:00;;;;;;;11.33;8.33;;;3.50;99.90;;;;;;4845640;29;20223;-96
2021/01/03 04:55:40;;;;;;;14.53;8.67;;;3.40;99.90;;;;;;4846736;29;20219;-96
2021/01/03 04:58:15;;;;;;;20.47;8.93;;;3.50;99.90;;;;;;4836416;29;20307;-96
2021/01/03 05:00:57;;;;;;;6.60;5.83;;;3.50;99.90;;;;;;4843509;29;20295;-96
2021/01/03 05:03:51;;;;;;;9.07;6.27;;;3.50;99.90;;;;;;4846527;29;20239;-96
2021/01/03 05:06:24;;;;;;;15.93;9.43;;;3.40;99.90;;;;;;4825813;29;20223;-96
2021/01/03 05:08:59;;;;;;;9.53;7.20;;;3.40;99.90;;;;;;4843104;29;20279;-96
2021/01/03 05:12:22;;;;;;;6.60;6.00;;;3.40;99.90;;;;;;4857282;29;21290;-95
2021/01/03 05:14:59;;;;;;;11.70;7.80;;;3.40;99.90;;;;;;4812884;29;20230;-96
2021/01/03 05:17:28;;;;;;;10.33;8.13;;;3.40;99.90;;;;;;4819442;29;20201;-91
2021/01/03 05:19:54;;;;;;;20.13;7.83;;;3.40;99.90;;;;;;4843099;29;20209;-96
2021/01/03 05:22:24;;;;;;;8.40;6.10;;;3.40;99.90;;;;;;4841759;29;20262;-96
2021/01/03 05:24:50;;;;;;;9.57;8.57;;;3.40;99.90;;;;;;4848844;29;20241;-96
2021/01/03 05:27:21;;;;;;;14.83;7.37;;;3.40;99.90;;;;;;4841893;29;20235;-96
2021/01/03 05:29:47;;;;;;;11.80;7.63;;;3.40;99.90;;;;;;4857248;29;20228;-96
2021/01/03 05:32:29;;;;;;;25.53;6.73;;;3.40;99.90;;;;;;4843974;29;20701;-96
2021/01/03 05:34:56;;;;;;;11.43;7.20;;;3.40;99.90;;;;;;4832963;29;20251;-96
2021/01/03 05:37:30;;;;;;;10.77;7.07;;;3.40;99.90;;;;;;4841455;29;20227;-96
2021/01/03 05:39:56;;;;;;;15.03;8.37;;;3.40;99.90;;;;;;4839838;29;20223;-96
2021/01/03 05:42:35;;;;;;;21.73;8.13;;;3.40;99.90;;;;;;4838386;29;20236;-96
2021/01/03 05:45:27;;;;;;;11.73;7.73;;;3.40;99.90;;;;;;4842790;29;20219;-96
2021/01/03 05:47:59;;;;;;;13.50;9.83;;;3.40;99.90;;;;;;4838826;29;20229;-95
2021/01/03 05:50:27;;;;;;;10.00;8.17;;;3.40;99.90;;;;;;4854907;29;20242;-94
2021/01/03 05:52:55;;;;;;;7.70;5.23;;;3.40;99.90;;;;;;4854093;29;20231;-92
2021/01/03 05:55:27;;;;;;;14.20;7.53;;;3.30;99.90;;;;;;4853185;29;20352;-96
2021/01/03 05:58:17;;;;;;;10.80;8.00;;;3.30;99.90;;;;;;4839712;29;20231;-96
2021/01/03 06:00:43;;;;;;;6.67;5.33;;;3.30;99.90;;;;;;4837267;29;20231;-95
2021/01/03 06:03:29;;;;;;;8.00;6.00;;;3.30;99.90;;;;;;4815660;29;20232;-95
2021/01/03 06:06:14;;;;;;;7.40;5.07;;;3.30;99.90;;;;;;4830479;29;20286;-95
2021/01/03 06:08:41;;;;;;;14.37;6.53;;;3.40;99.90;;;;;;4852942;29;20195;-95
2021/01/03 06:11:13;;;;;;;8.97;7.87;;;3.50;99.90;;;;;;4822226;29;20224;-94
2021/01/03 06:13:53;;;;;;;9.23;6.93;;;3.40;99.90;;;;;;4837199;29;20287;-94
2021/01/03 06:16:28;;;;;;;15.30;7.60;;;3.40;99.90;;;;;;4841749;29;20763;-95
2021/01/03 06:19:24;;;;;;;13.57;9.30;;;3.30;99.90;;;;;;4845441;29;20226;-94
2021/01/03 06:21:53;;;;;;;16.47;7.20;;;3.30;99.90;;;;;;4842562;29;20232;-96
2021/01/03 06:24:24;;;;;;;10.57;7.53;;;3.30;99.90;;;;;;4841180;29;20629;-95
2021/01/03 06:27:03;;;;;;;9.40;7.67;;;3.30;99.90;;;;;;4855525;29;20344;-95
2021/01/03 06:29:29;;;;;;;11.83;6.53;;;3.30;99.90;;;;;;4840315;29;20181;-95
2021/01/03 06:32:13;;;;;;;10.27;7.50;;;3.40;99.90;;;;;;4841837;29;20244;-95
2021/01/03 06:34:49;;;;;;;9.13;8.23;;;3.40;99.90;;;;;;4841344;29;20231;-96
2021/01/03 06:37:33;;;;;;;10.93;8.13;;;3.40;99.90;;;;;;4838786;29;20223;-94
2021/01/03 06:40:11;;;;;;;13.33;9.53;;;3.40;99.90;;;;;;4839186;29;20209;-95
2021/01/03 06:42:43;;;;;;;17.60;8.97;;;3.40;99.90;;;;;;4846163;29;20231;-95
2021/01/03 06:45:32;;;;;;;9.70;7.23;;;3.30;99.90;;;;;;4839967;29;20240;-95
2021/01/03 06:48:29;;;;;;;14.33;6.83;;;3.30;99.90;;;;;;4861661;29;20224;-94
2021/01/03 06:51:22;;;;;;;9.37;7.60;;;3.40;99.90;;;;;;4833026;29;20240;-95
2021/01/03 06:54:15;;;;;;;13.40;7.47;;;3.30;99.90;;;;;;4846556;29;20240;-95
2021/01/03 06:56:52;;;;;;;13.10;7.67;;;3.40;99.90;;;;;;4860913;29;20200;-96
2021/01/03 06:59:21;;;;;;;16.53;6.83;;;3.50;99.90;;;;;;4845474;29;20219;-95
2021/01/03 07:01:57;;;;;;;11.90;6.37;;;3.50;99.90;;;;;;4856633;29;20754;-93
2021/01/03 07:04:30;;;;;;;9.10;5.37;;;3.60;99.90;;;;;;4839537;29;20232;-95
2021/01/03 07:07:00;;;;;;;11.80;9.30;;;3.60;99.90;;;;;;4855554;29;20224;-96
2021/01/03 07:09:29;;;;;;;14.17;7.80;;;3.70;99.90;;;;;;4839275;29;20230;-95
2021/01/03 07:11:59;;;;;;;14.47;10.40;;;3.70;99.90;;;;;;4837053;29;20232;-95
2021/01/03 07:14:24;;;;;;;13.67;7.60;;;3.70;99.90;;;;;;4843819;29;20213;-95
2021/01/03 07:17:08;;;;;;;12.93;6.70;;;3.70;99.90;;;;;;4832148;29;20303;-95
2021/01/03 07:19:52;;;;;;;24.70;8.90;;;3.70;99.90;;;;;;4860975;29;20305;-95
2021/01/03 07:22:35;;;;;;;11.37;7.47;;;3.70;99.90;;;;;;4842443;29;20240;-95
2021/01/03 07:25:00;;;;;;;11.97;6.23;;;3.70;99.90;;;;;;4860783;29;20276;-96
2021/01/03 07:27:39;;;;;;;23.57;8.97;;;3.70;99.90;;;;;;4843837;29;20238;-95
2021/01/03 07:30:05;;;;;;;13.00;6.47;;;3.70;99.90;;;;;;4844611;29;20736;-95
2021/01/03 07:32:32;;;;;;;16.43;10.60;;;3.80;99.90;;;;;;4844030;29;20255;-95
2021/01/03 07:35:02;;;;;;;16.17;8.83;;;3.80;99.90;;;;;;4844174;29;20440;-95
2021/01/03 07:37:34;;;;;;;11.83;8.73;;;3.80;99.90;;;;;;4843512;29;20224;-95
2021/01/03 07:40:11;;;;;;;8.80;6.80;;;3.70;99.90;;;;;;4837976;29;20511;-95
2021/01/03 07:43:01;;;;;;;17.30;10.37;;;3.70;99.90;;;;;;4844607;29;20236;-96
2021/01/03 07:45:33;;;;;;;10.23;6.93;;;3.80;99.90;;;;;;4844213;29;20225;-96
2021/01/03 07:48:00;;;;;;;15.40;10.60;;;3.80;99.90;;;;;;4843779;29;20319;-96
2021/01/03 07:50:39;;;;;;;8.67;6.73;;;3.80;99.90;;;;;;4842756;29;20185;-95
2021/01/03 07:53:26;;;;;;;9.93;7.30;;;3.80;99.90;;;;;;4846268;29;20188;-95
2021/01/03 07:55:53;;;;;;;8.13;4.83;;;3.90;99.90;;;;;;4843973;29;20855;-95
2021/01/03 07:58:31;;;;;;;17.57;10.27;;;3.90;99.90;;;;;;4862048;29;20223;-94
2021/01/03 08:01:00;;;;;;;11.97;9.53;;;3.90;99.90;;;;;;4820416;29;20798;-94
2021/01/03 08:03:34;;;;;;;51.70;20.25;;;3.90;99.90;;;;;;4845095;29;20446;-95
2021/01/03 08:06:09;;;;;;;21.07;11.10;;;3.90;99.90;;;;;;4841774;29;20228;-96
2021/01/03 08:08:41;;;;;;;11.33;7.43;;;3.90;99.90;;;;;;4860205;29;20702;-93
2021/01/03 08:11:18;;;;;;;18.27;8.03;;;4.00;99.90;;;;;;4829894;29;20216;-94
2021/01/03 08:13:56;;;;;;;9.60;8.13;;;4.00;99.90;;;;;;4843343;29;20691;-95
2021/01/03 08:16:24;;;;;;;7.97;7.03;;;4.00;99.90;;;;;;4845971;29;20213;-94
2021/01/03 08:19:06;;;;;;;10.77;8.67;;;4.00;99.90;;;;;;4833386;29;20220;-95
2021/01/03 08:21:41;;;;;;;14.50;9.37;;;4.00;99.90;;;;;;4842531;29;20225;-94
2021/01/03 08:24:14;;;;;;;10.47;6.50;;;4.00;99.90;;;;;;4842355;29;20318;-93
2021/01/03 08:26:50;;;;;;;12.97;7.20;;;4.00;99.90;;;;;;4841467;29;20192;-96
2021/01/03 08:29:47;;;;;;;12.10;7.40;;;4.00;99.90;;;;;;4842766;29;20204;-95
2021/01/03 08:32:20;;;;;;;10.03;5.50;;;4.00;99.90;;;;;;4841801;29;20246;-93
2021/01/03 08:34:56;;;;;;;10.90;8.20;;;4.00;99.90;;;;;;4844737;29;20749;-96
2021/01/03 08:37:29;;;;;;;14.43;8.77;;;4.00;99.90;;;;;;4849491;29;20239;-96
2021/01/03 08:40:13;;;;;;;16.70;6.30;;;4.00;99.90;;;;;;4830804;29;20308;-95
2021/01/03 08:42:43;;;;;;;19.83;7.37;;;4.00;99.90;;;;;;4832916;29;20323;-95
2021/01/03 08:45:20;;;;;;;14.80;8.47;;;4.00;99.90;;;;;;4837530;29;20686;-94
2021/01/03 08:47:46;;;;;;;14.03;9.47;;;4.00;99.90;;;;;;4837926;29;20326;-95
2021/01/03 08:50:20;;;;;;;7.70;5.03;;;4.00;99.90;;;;;;4840593;29;20197;-95
2021/01/03 08:53:17;;;;;;;10.67;6.40;;;4.00;99.90;;;;;;4861180;29;20232;-96
2021/01/03 08:55:49;;;;;;;13.93;8.53;;;4.00;99.90;;;;;;4846910;29;20227;-96
2021/01/03 08:58:37;;;;;;;14.87;7.23;;;4.00;99.90;;;;;;4839857;29;20781;-96
2021/01/03 09:01:17;;;;;;;14.10;6.57;;;4.00;99.90;;;;;;4843155;29;20320;-96
2021/01/03 09:03:47;;;;;;;14.57;6.73;;;4.00;99.90;;;;;;4841906;29;20228;-96
2021/01/03 09:06:17;;;;;;;7.90;5.87;;;4.00;99.90;;;;;;4858340;29;20228;-96
2021/01/03 09:08:52;;;;;;;12.13;9.83;;;4.00;99.90;;;;;;4843878;29;20199;-95
2021/01/03 09:11:34;;;;;;;17.23;8.80;;;4.00;99.90;;;;;;4851376;29;20505;-96
2021/01/03 09:14:16;;;;;;;8.87;7.00;;;4.00;99.90;;;;;;4845179;29;20262;-94
2021/01/03 09:17:17;;;;;;;7.60;3.30;;;4.00;99.90;;;;;;4830379;29;20227;-95
2021/01/03 09:19:55;;;;;;;14.03;7.93;;;4.00;99.90;;;;;;4841078;29;20721;-94
2021/01/03 09:22:37;;;;;;;8.17;5.83;;;4.00;99.90;;;;;;4842617;29;20235;-96
2021/01/03 09:25:43;;;;;;;12.80;7.80;;;4.00;99.90;;;;;;4834645;29;20235;-96
2021/01/03 09:28:33;;;;;;;7.90;4.30;;;4.10;99.90;;;;;;4863518;29;20270;-87
2021/01/03 09:31:20;;;;;;;7.67;6.43;;;4.10;99.90;;;;;;4841127;29;20244;-89
2021/01/03 09:33:53;;;;;;;12.77;7.63;;;4.10;99.90;;;;;;4855823;29;20236;-87
2021/01/03 09:36:54;;;;;;;10.50;8.00;;;4.10;99.90;;;;;;4840166;29;20637;-88
2021/01/03 09:39:25;;;;;;;10.63;6.57;;;4.10;99.90;;;;;;4856113;29;20338;-91
2021/01/03 09:42:30;;;;;;;10.33;6.33;;;4.20;99.90;;;;;;4840231;29;20355;-90
2021/01/03 09:45:05;;;;;;;7.70;4.90;;;4.20;99.90;;;;;;4840778;29;20307;-89
2021/01/03 09:47:43;;;;;;;7.70;6.27;;;4.30;99.90;;;;;;4854346;29;20196;-87
2021/01/03 09:50:45;;;;;;;9.13;5.60;;;4.30;99.90;;;;;;4841745;29;20555;-88
2021/01/03 09:53:20;;;;;;;9.07;5.33;;;4.30;99.90;;;;;;4857060;29;20235;-91
2021/01/03 09:56:08;;;;;;;13.63;7.93;;;4.30;99.90;;;;;;4841318;29;20285;-88
2021/01/03 09:58:40;;;;;;;5.13;4.73;;;4.30;99.90;;;;;;4841532;29;20233;-87
2021/01/03 10:01:08;;;;;;;8.87;7.77;;;4.40;99.90;;;;;;4858182;29;20224;-87
2021/01/03 10:03:43;;;;;;;20.43;7.00;;;4.40;99.90;;;;;;4841408;29;20260;-85
2021/01/03 10:06:24;;;;;;;11.13;6.87;;;4.40;99.90;;;;;;4841996;29;21226;-87
2021/01/03 10:09:10;;;;;;;6.17;3.67;;;4.40;99.90;;;;;;4857774;29;20224;-87
2021/01/03 10:11:36;;;;;;;6.37;5.77;;;4.40;99.90;;;;;;4856750;29;20194;-86
2021/01/03 10:14:07;;;;;;;20.97;7.97;;;4.50;99.90;;;;;;4856701;29;20220;-87
2021/01/03 10:16:35;;;;;;;9.50;7.13;;;4.50;99.90;;;;;;4854605;29;20239;-86
2021/01/03 10:19:15;;;;;;;9.93;7.47;;;4.50;99.90;;;;;;4826163;29;20225;-87
2021/01/03 10:21:42;;;;;;;6.13;4.27;;;4.50;99.90;;;;;;4855363;29;20236;-86
2021/01/03 10:24:24;;;;;;;9.33;5.37;;;4.50;99.90;;;;;;4854756;29;20220;-87
2021/01/03 10:27:13;;;;;;;4.43;4.07;;;4.50;99.90;;;;;;4839439;29;20220;-87
2021/01/03 10:29:39;;;;;;;13.27;6.83;;;4.50;99.90;;;;;;4838101;29;20208;-88
2021/01/03 10:32:05;;;;;;;9.73;6.03;;;4.40;99.90;;;;;;4839664;29;20204;-87
2021/01/03 10:34:30;;;;;;;11.30;6.40;;;4.40;99.90;;;;;;4823586;29;20241;-88
2021/01/03 10:36:58;;;;;;;11.57;7.90;;;4.30;99.90;;;;;;4840139;29;20315;-85
2021/01/03 10:39:25;;;;;;;8.97;6.73;;;4.30;99.90;;;;;;4839473;29;20392;-86
2021/01/03 10:41:51;;;;;;;12.40;5.27;;;4.20;99.90;;;;;;4825212;29;20239;-86
2021/01/03 10:44:17;;;;;;;12.03;4.10;;;4.20;99.90;;;;;;4825729;29;20197;-85
2021/01/03 10:46:45;;;;;;;11.13;4.70;;;4.20;99.90;;;;;;4855066;29;20255;-87
2021/01/03 10:49:11;;;;;;;13.60;6.67;;;4.30;99.90;;;;;;4837766;29;20221;-86
2021/01/03 10:51:38;;;;;;;11.33;7.07;;;4.30;99.90;;;;;;4841616;29;20308;-86
2021/01/03 10:54:06;;;;;;;9.23;5.00;;;4.30;99.90;;;;;;4859711;29;21093;-88
2021/01/03 10:56:32;;;;;;;9.93;3.43;;;4.30;99.90;;;;;;4842675;29;20208;-86
2021/01/03 10:58:58;;;;;;;9.70;5.13;;;4.30;99.90;;;;;;4830065;29;20216;-86
2021/01/03 11:01:24;;;;;;;7.43;5.97;;;4.30;99.90;;;;;;4859119;29;20239;-87
2021/01/03 11:03:50;;;;;;;12.70;5.90;;;4.30;99.90;;;;;;4812647;29;20232;-85
2021/01/03 11:06:16;;;;;;;13.30;7.33;;;4.30;99.90;;;;;;4837967;29;20225;-86
2021/01/03 11:08:42;;;;;;;7.33;5.40;;;4.40;99.90;;;;;;4838864;29;20696;-87
2021/01/03 11:11:08;;;;;;;12.07;7.13;;;4.40;99.90;;;;;;4824826;29;20690;-87
2021/01/03 11:13:35;;;;;;;8.93;6.37;;;4.30;99.90;;;;;;4838143;29;20228;-86
2021/01/03 11:16:01;;;;;;;11.97;7.27;;;4.30;99.90;;;;;;4823645;29;20228;-86
2021/01/03 11:18:27;;;;;;;9.17;5.40;;;4.40;99.90;;;;;;4840653;29;21008;-87
2021/01/03 11:20:53;;;;;;;14.43;6.03;;;4.40;99.90;;;;;;4836886;29;20217;-89
2021/01/03 11:23:19;;;;;;;4.90;3.10;;;4.40;99.90;;;;;;4840649;29;20233;-85
2021/01/03 11:25:47;;;;;;;8.40;5.07;;;4.40;99.90;;;;;;4820070;29;20220;-86
2021/01/03 11:28:13;;;;;;;4.63;4.20;;;4.40;99.90;;;;;;4853597;29;20228;-86
2021/01/03 11:30:39;;;;;;;7.70;6.30;;;4.40;99.90;;;;;;4858499;29;20996;-86
2021/01/03 11:33:05;;;;;;;3.90;3.17;;;4.50;99.90;;;;;;4841807;29;20263;-85
2021/01/03 11:35:30;;;;;;;5.07;4.23;;;4.50;99.90;;;;;;4827481;29;20880;-86
2021/01/03 11:37:57;;;;;;;17.77;6.30;;;4.50;99.90;;;;;;4827965;29;20199;-85
2021/01/03 11:40:23;;;;;;;7.27;5.40;;;4.50;99.90;;;;;;4828125;29;20424;-86
2021/01/03 11:42:49;;;;;;;8.60;4.93;;;4.60;99.90;;;;;;4812066;29;20233;-85
2021/01/03 11:45:18;;;;;;;10.47;4.93;;;4.50;99.90;;;;;;4858285;29;20323;-85
2021/01/03 11:47:45;;;;;;;12.90;4.13;;;4.50;99.90;;;;;;4841329;29;20201;-86
2021/01/03 11:50:14;;;;;;;3.87;3.53;;;4.50;99.90;;;;;;4843066;29;20194;-86
2021/01/03 11:52:41;;;;;;;5.13;3.17;;;4.40;99.90;;;;;;4860619;29;20260;-86
2021/01/03 11:55:09;;;;;;;22.40;4.27;;;4.30;99.90;;;;;;4841790;29;20315;-86
2021/01/03 11:57:35;;;;;;;3.13;2.37;;;4.30;99.90;;;;;;4839325;29;20216;-86
2021/01/03 12:00:04;;;;;;;6.27;4.13;;;4.20;99.90;;;;;;4857708;29;20232;-89
2021/01/03 12:02:30;;;;;;;4.13;3.03;;;4.30;99.90;;;;;;4824445;29;20205;-87
2021/01/03 12:04:55;;;;;;;8.87;4.27;;;4.40;99.90;;;;;;4828276;29;20682;-86
2021/01/03 12:07:21;;;;;;;7.80;3.50;;;4.50;99.90;;;;;;4843930;29;20251;-90
2021/01/03 12:09:47;;;;;;;2.63;2.40;;;4.60;99.90;;;;;;4840172;29;20232;-86
2021/01/03 12:12:16;;;;;;;4.73;3.07;;;4.70;99.90;;;;;;4841648;29;20304;-86
2021/01/03 12:14:42;;;;;;;3.47;3.17;;;4.80;99.90;;;;;;4841435;29;20228;-88
2021/01/03 12:17:10;;;;;;;2.50;1.67;;;4.90;99.90;;;;;;4829692;29;20280;-87
2021/01/03 12:19:36;;;;;;;3.43;2.37;;;4.80;99.90;;;;;;4844012;29;20240;-88
2021/01/03 12:22:05;;;;;;;5.23;2.83;;;4.60;99.90;;;;;;4842861;29;20223;-88
2021/01/03 12:24:31;;;;;;;3.30;3.03;;;4.40;99.90;;;;;;4841371;29;20233;-88
2021/01/03 12:26:57;;;;;;;4.40;3.97;;;4.40;99.90;;;;;;4842129;29;20220;-86
2021/01/03 12:29:25;;;;;;;2.57;2.37;;;4.50;99.90;;;;;;4859185;29;20252;-86
2021/01/03 12:31:53;;;;;;;4.70;2.80;;;4.50;99.90;;;;;;4826723;29;20262;-87
2021/01/03 12:34:21;;;;;;;2.20;2.07;;;4.60;99.90;;;;;;4857204;29;20234;-85
2021/01/03 12:36:47;;;;;;;2.20;1.90;;;4.70;99.90;;;;;;4839538;29;20224;-87
2021/01/03 12:39:15;;;;;;;3.53;3.10;;;4.70;99.90;;;;;;4825736;29;20712;-88
2021/01/03 12:41:41;;;;;;;2.63;2.37;;;4.70;99.90;;;;;;4856656;29;20688;-87
2021/01/03 12:44:07;;;;;;;1.37;0.97;;;4.70;99.90;;;;;;4828992;29;20292;-86
2021/01/03 12:46:39;;;;;;;2.10;1.47;;;4.60;99.90;;;;;;4840047;29;20225;-87
2021/01/03 12:49:06;;;;;;;2.87;1.73;;;4.70;99.90;;;;;;4837782;29;20212;-86
2021/01/03 12:51:32;;;;;;;1.87;1.40;;;4.70;99.90;;;;;;4853850;29;20230;-87
2021/01/03 12:53:58;;;;;;;2.23;1.73;;;4.60;99.90;;;;;;4827394;29;20347;-89
2021/01/03 12:56:26;;;;;;;2.90;1.63;;;4.70;99.90;;;;;;4827201;29;20979;-86
2021/01/03 12:58:53;;;;;;;2.07;1.77;;;4.80;99.90;;;;;;4840868;29;20267;-87
2021/01/03 13:01:24;;;;;;;1.33;1.30;;;4.80;99.90;;;;;;4824620;29;20236;-86
2021/01/03 13:03:50;;;;;;;4.13;1.87;;;4.80;99.90;;;;;;4828302;29;20228;-87
2021/01/03 13:06:16;;;;;;;2.30;2.10;;;4.80;99.90;;;;;;4823443;29;20567;-88
2021/01/03 13:08:42;;;;;;;0.60;0.60;;;4.80;99.90;;;;;;4826371;29;20196;-87
2021/01/03 13:11:07;;;;;;;3.03;1.80;;;4.80;99.90;;;;;;4826841;29;20720;-88
2021/01/03 13:13:33;;;;;;;1.47;1.27;;;4.90;99.90;;;;;;4822324;29;20232;-86
2021/01/03 13:15:59;;;;;;;0.83;0.83;;;5.10;99.90;;;;;;4825532;29;21347;-86
2021/01/03 13:18:26;;;;;;;0.83;0.70;;;5.10;99.90;;;;;;4810485;29;20349;-86
2021/01/03 13:20:52;;;;;;;2.30;2.13;;;5.00;99.90;;;;;;4840397;29;20323;-86
2021/01/03 13:23:18;;;;;;;1.30;1.23;;;4.70;99.90;;;;;;4842111;29;20618;-87